createdAt,value
2023-03-29T00:00:49.607Z,2.53
2023-03-29T00:01:52.466Z,2.30
2023-03-29T00:02:56.523Z,2.40
2023-03-29T00:04:02.437Z,2.33
2023-03-29T00:05:05.215Z,2.50
2023-03-29T00:06:07.202Z,2.10
2023-03-29T00:07:09.385Z,2.67
2023-03-29T00:08:14.471Z,2.65
2023-03-29T00:09:18.313Z,2.90
2023-03-29T00:10:25.080Z,3.22
2023-03-29T00:11:27.425Z,3.50
2023-03-29T00:12:29.577Z,3.50
2023-03-29T00:13:31.393Z,3.60
2023-03-29T00:14:33.260Z,3.42
2023-03-29T00:15:35.640Z,4.55
2023-03-29T00:16:37.782Z,3.60
2023-03-29T00:17:40.131Z,4.05
2023-03-29T00:18:42.026Z,4.22
2023-03-29T00:19:45.294Z,4.03
2023-03-29T00:20:53.823Z,4.12
2023-03-29T00:21:55.716Z,3.62
2023-03-29T00:22:57.910Z,3.47
2023-03-29T00:23:59.766Z,3.55
2023-03-29T00:25:01.643Z,3.00
2023-03-29T00:26:05.869Z,3.35
2023-03-29T00:27:09.122Z,3.42
2023-03-29T00:28:11.254Z,3.05
2023-03-29T00:29:13.117Z,3.20
2023-03-29T00:30:15.924Z,3.37
2023-03-29T00:31:18.620Z,3.58
2023-03-29T00:32:20.650Z,3.30
2023-03-29T00:33:22.863Z,3.05
2023-03-29T00:34:30.701Z,3.80
2023-03-29T00:35:33.173Z,2.42
2023-03-29T00:36:35.042Z,3.33
2023-03-29T00:37:38.011Z,3.05
2023-03-29T00:38:40.505Z,2.20
2023-03-29T00:39:42.660Z,2.65
2023-03-29T00:40:47.080Z,2.50
2023-03-29T00:41:50.315Z,2.60
2023-03-29T00:42:52.272Z,2.37
2023-03-29T00:44:03.096Z,2.40
2023-03-29T00:45:07.067Z,2.47
2023-03-29T00:46:09.257Z,2.67
2023-03-29T00:47:11.474Z,2.15
2023-03-29T00:48:22.048Z,2.40
2023-03-29T00:49:24.316Z,2.30
2023-03-29T00:50:38.043Z,2.22
2023-03-29T00:51:41.461Z,2.60
2023-03-29T00:52:48.870Z,2.90
2023-03-29T00:53:55.616Z,3.45
2023-03-29T00:55:01.532Z,3.40
2023-03-29T00:56:07.431Z,2.90
2023-03-29T00:57:12.002Z,3.30
2023-03-29T00:58:17.933Z,3.15
2023-03-29T00:59:25.311Z,2.95
2023-03-29T01:00:34.966Z,2.78
2023-03-29T01:01:44.968Z,2.80
2023-03-29T01:02:54.250Z,3.35
2023-03-29T01:04:08.937Z,3.05
2023-03-29T01:05:17.507Z,2.92
2023-03-29T01:06:24.843Z,3.17
2023-03-29T01:07:35.386Z,2.67
2023-03-29T01:08:54.643Z,3.05
2023-03-29T01:10:09.253Z,3.42
2023-03-29T01:11:14.852Z,3.05
2023-03-29T01:12:22.317Z,2.60
2023-03-29T01:13:55.234Z,3.10
2023-03-29T01:15:06.981Z,3.10
2023-03-29T01:16:11.641Z,3.83
2023-03-29T01:17:13.499Z,4.15
2023-03-29T01:18:15.684Z,3.78
2023-03-29T01:19:22.203Z,4.07
2023-03-29T01:20:43.518Z,3.55
2023-03-29T01:21:52.912Z,3.80
2023-03-29T01:23:10.046Z,3.80
2023-03-29T01:24:27.565Z,3.58
2023-03-29T01:25:48.168Z,3.53
2023-03-29T01:27:03.242Z,3.67
2023-03-29T01:28:31.324Z,3.75
2023-03-29T01:29:57.295Z,3.30
2023-03-29T01:31:32.560Z,3.35
2023-03-29T01:32:42.350Z,3.50
2023-03-29T01:33:49.384Z,3.42
2023-03-29T01:35:10.370Z,3.30
2023-03-29T01:36:29.470Z,2.87
2023-03-29T01:37:39.409Z,3.78
2023-03-29T01:38:46.475Z,3.17
2023-03-29T01:39:48.423Z,3.40
2023-03-29T01:40:50.820Z,2.92
2023-03-29T01:42:01.693Z,3.00
2023-03-29T01:43:27.856Z,3.03
2023-03-29T01:44:34.053Z,2.97
2023-03-29T01:46:04.169Z,3.25
2023-03-29T01:47:19.607Z,3.25
2023-03-29T01:48:45.680Z,2.95
2023-03-29T01:50:09.427Z,2.80
2023-03-29T01:51:25.129Z,2.67
2023-03-29T01:52:38.261Z,3.05
2023-03-29T01:53:47.074Z,2.42
2023-03-29T01:55:12.353Z,2.90
2023-03-29T01:56:21.747Z,2.80
2023-03-29T01:57:26.379Z,3.58
2023-03-29T01:58:34.041Z,3.40
2023-03-29T01:59:41.292Z,2.83
2023-03-29T02:00:43.919Z,3.00
2023-03-29T02:01:51.725Z,3.15
2023-03-29T02:02:59.253Z,3.28
2023-03-29T02:04:04.614Z,3.25
2023-03-29T02:05:09.986Z,2.65
2023-03-29T02:06:15.573Z,3.30
2023-03-29T02:07:21.139Z,3.05
2023-03-29T02:08:24.056Z,3.25
2023-03-29T02:09:27.087Z,2.90
2023-03-29T02:10:30.245Z,3.05
2023-03-29T02:11:33.790Z,3.70
2023-03-29T02:12:38.160Z,3.65
2023-03-29T02:13:40.267Z,3.30
2023-03-29T02:14:42.728Z,3.90
2023-03-29T02:15:46.148Z,3.37
2023-03-29T02:16:49.660Z,3.55
2023-03-29T02:17:51.737Z,3.60
2023-03-29T02:18:56.514Z,3.83
2023-03-29T02:20:14.283Z,3.75
2023-03-29T02:21:24.064Z,4.00
2023-03-29T02:22:37.482Z,3.70
2023-03-29T02:23:45.820Z,3.37
2023-03-29T02:24:50.120Z,4.35
2023-03-29T02:25:56.967Z,4.18
2023-03-29T02:27:01.302Z,5.03
2023-03-29T02:28:05.814Z,6.68
2023-03-29T02:29:08.417Z,9.20
2023-03-29T02:30:12.776Z,13.62
2023-03-29T02:31:35.146Z,13.15
2023-03-29T02:34:02.470Z,14.52
2023-03-29T02:35:18.150Z,17.20
2023-03-29T02:36:41.723Z,17.35
2023-03-29T02:37:46.357Z,16.65
2023-03-29T02:38:48.651Z,17.60
2023-03-29T02:39:52.474Z,17.95
2023-03-29T02:40:56.674Z,17.83
2023-03-29T02:41:59.733Z,17.10
2023-03-29T02:43:03.204Z,16.73
2023-03-29T02:44:08.219Z,15.77
2023-03-29T02:45:14.336Z,13.90
2023-03-29T02:46:18.636Z,14.52
2023-03-29T02:47:30.150Z,13.18
2023-03-29T02:48:34.578Z,12.43
2023-03-29T02:49:36.844Z,12.95
2023-03-29T02:50:41.758Z,12.00
2023-03-29T02:51:47.429Z,10.80
2023-03-29T02:52:59.256Z,11.70
2023-03-29T02:54:11.193Z,11.15
2023-03-29T02:55:17.317Z,11.18
2023-03-29T02:56:22.069Z,11.48
2023-03-29T02:57:26.661Z,12.07
2023-03-29T02:58:29.558Z,12.13
2023-03-29T02:59:32.176Z,12.37
2023-03-29T03:00:43.106Z,12.30
2023-03-29T03:01:45.792Z,12.37
2023-03-29T03:02:48.725Z,10.25
2023-03-29T03:03:51.927Z,10.18
2023-03-29T03:04:55.495Z,11.23
2023-03-29T03:05:58.007Z,11.52
2023-03-29T03:06:59.907Z,13.50
2023-03-29T03:08:02.666Z,14.52
2023-03-29T03:09:05.979Z,15.27
2023-03-29T03:10:10.176Z,14.27
2023-03-29T03:11:12.451Z,15.13
2023-03-29T03:12:14.617Z,17.65
2023-03-29T03:13:16.477Z,16.87
2023-03-29T03:14:19.222Z,17.12
2023-03-29T03:15:21.084Z,16.85
2023-03-29T03:16:23.946Z,14.82
2023-03-29T03:17:25.935Z,14.68
2023-03-29T03:18:27.862Z,15.02
2023-03-29T03:19:29.744Z,15.48
2023-03-29T03:20:31.591Z,14.00
2023-03-29T03:21:35.235Z,15.48
2023-03-29T03:22:37.210Z,14.43
2023-03-29T03:23:39.123Z,15.27
2023-03-29T03:24:43.026Z,14.32
2023-03-29T03:25:46.108Z,15.77
2023-03-29T03:26:50.040Z,12.55
2023-03-29T03:27:53.633Z,13.57
2023-03-29T03:28:56.531Z,14.25
2023-03-29T03:30:02.033Z,14.38
2023-03-29T03:31:07.140Z,14.18
2023-03-29T03:32:12.412Z,14.35
2023-03-29T03:33:16.987Z,13.80
2023-03-29T03:34:21.054Z,14.85
2023-03-29T03:35:23.707Z,13.82
2023-03-29T03:36:26.144Z,14.90
2023-03-29T03:37:31.893Z,13.82
2023-03-29T03:38:34.088Z,14.23
2023-03-29T03:39:36.769Z,14.57
2023-03-29T03:40:39.044Z,17.52
2023-03-29T03:41:41.105Z,16.65
2023-03-29T03:42:43.432Z,18.98
2023-03-29T03:43:48.959Z,21.87
2023-03-29T03:44:51.758Z,21.08
2023-03-29T03:45:55.730Z,19.05
2023-03-29T03:46:57.834Z,19.67
2023-03-29T03:48:00.166Z,20.25
2023-03-29T03:49:02.973Z,19.02
2023-03-29T03:50:06.181Z,18.55
2023-03-29T03:51:08.069Z,15.15
2023-03-29T03:52:10.198Z,14.50
2023-03-29T03:53:12.428Z,14.55
2023-03-29T03:54:20.594Z,13.55
2023-03-29T03:55:26.464Z,14.10
2023-03-29T03:56:31.023Z,14.13
2023-03-29T03:57:37.473Z,14.05
2023-03-29T03:58:40.080Z,14.75
2023-03-29T03:59:42.786Z,15.25
2023-03-29T04:00:51.571Z,14.65
2023-03-29T04:01:54.861Z,16.55
2023-03-29T04:02:57.067Z,15.73
2023-03-29T04:03:59.412Z,14.65
2023-03-29T04:05:03.487Z,15.73
2023-03-29T04:06:05.797Z,15.90
2023-03-29T04:07:13.099Z,14.35
2023-03-29T04:08:15.381Z,14.15
2023-03-29T04:09:20.414Z,13.62
2023-03-29T04:10:23.359Z,13.40
2023-03-29T04:11:25.980Z,12.85
2023-03-29T04:12:28.308Z,13.60
2023-03-29T04:13:30.267Z,15.23
2023-03-29T04:14:35.686Z,14.77
2023-03-29T04:15:39.213Z,13.35
2023-03-29T04:16:41.530Z,12.20
2023-03-29T04:17:47.773Z,11.45
2023-03-29T04:18:52.351Z,12.37
2023-03-29T04:19:54.329Z,14.38
2023-03-29T04:20:56.183Z,11.12
2023-03-29T04:21:58.599Z,9.93
2023-03-29T04:23:01.107Z,9.38
2023-03-29T04:24:03.576Z,9.35
2023-03-29T04:25:08.208Z,9.65
2023-03-29T04:26:15.926Z,9.93
2023-03-29T04:27:18.041Z,9.63
2023-03-29T04:28:20.390Z,9.38
2023-03-29T04:29:23.176Z,10.27
2023-03-29T04:30:25.826Z,10.10
2023-03-29T04:31:32.336Z,10.40
2023-03-29T04:32:35.197Z,9.63
2023-03-29T04:33:38.705Z,9.73
2023-03-29T04:34:40.602Z,9.68
2023-03-29T04:35:42.582Z,9.98
2023-03-29T04:36:45.280Z,10.23
2023-03-29T04:37:48.342Z,11.65
2023-03-29T04:38:52.371Z,10.93
2023-03-29T04:39:54.652Z,13.38
2023-03-29T04:41:01.284Z,13.88
2023-03-29T04:42:06.012Z,15.05
2023-03-29T04:43:08.126Z,16.37
2023-03-29T04:44:12.363Z,19.95
2023-03-29T04:45:18.107Z,25.55
2023-03-29T04:46:26.432Z,32.50
2023-03-29T04:47:30.153Z,46.63
2023-03-29T04:48:32.462Z,43.78
2023-03-29T04:49:34.678Z,50.78
2023-03-29T04:50:37.694Z,46.45
2023-03-29T04:51:39.835Z,45.63
2023-03-29T04:52:42.118Z,61.08
2023-03-29T04:53:43.994Z,51.72
2023-03-29T04:54:46.677Z,57.78
2023-03-29T04:55:49.673Z,56.92
2023-03-29T04:56:52.624Z,60.12
2023-03-29T04:57:55.834Z,60.38
2023-03-29T05:00:00.763Z,58.67
2023-03-29T05:01:06.932Z,67.20
2023-03-29T05:02:09.821Z,72.62
2023-03-29T05:03:15.155Z,71.22
2023-03-29T05:04:18.441Z,77.20
2023-03-29T05:05:23.981Z,74.00
2023-03-29T05:06:26.452Z,74.78
2023-03-29T05:07:28.377Z,74.60
2023-03-29T05:08:30.329Z,81.72
2023-03-29T05:09:35.465Z,89.15
2023-03-29T05:10:42.987Z,85.68
2023-03-29T05:11:45.215Z,87.93
2023-03-29T05:12:50.605Z,81.78
2023-03-29T05:13:52.509Z,87.45
2023-03-29T05:14:54.571Z,92.90
2023-03-29T05:15:57.292Z,87.78
2023-03-29T05:16:59.534Z,90.87
2023-03-29T05:18:01.560Z,73.62
2023-03-29T05:19:04.087Z,57.05
2023-03-29T05:20:09.700Z,62.65
2023-03-29T05:21:12.058Z,30.30
2023-03-29T05:22:16.668Z,25.02
2023-03-29T05:23:19.093Z,19.48
2023-03-29T05:24:25.155Z,18.37
2023-03-29T05:25:27.648Z,17.92
2023-03-29T05:26:29.885Z,13.98
2023-03-29T05:27:33.536Z,12.00
2023-03-29T05:28:35.760Z,11.48
2023-03-29T05:29:37.995Z,11.20
2023-03-29T05:30:41.383Z,11.75
2023-03-29T05:31:44.656Z,14.02
2023-03-29T05:32:46.998Z,19.48
2023-03-29T05:33:52.716Z,20.40
2023-03-29T05:34:54.806Z,25.60
2023-03-29T05:36:08.319Z,27.17
2023-03-29T05:37:13.417Z,24.83
2023-03-29T05:38:17.041Z,23.48
2023-03-29T05:39:19.040Z,23.87
2023-03-29T05:40:21.112Z,24.52
2023-03-29T05:41:25.770Z,23.42
2023-03-29T05:42:30.152Z,24.08
2023-03-29T05:43:32.900Z,24.55
2023-03-29T05:44:35.067Z,22.98
2023-03-29T05:45:39.061Z,24.67
2023-03-29T05:46:41.116Z,24.20
2023-03-29T05:47:48.019Z,25.67
2023-03-29T05:48:50.052Z,23.25
2023-03-29T05:49:54.038Z,23.40
2023-03-29T05:50:57.834Z,20.83
2023-03-29T05:52:00.415Z,19.77
2023-03-29T05:53:03.802Z,20.58
2023-03-29T05:54:05.870Z,19.20
2023-03-29T05:55:10.428Z,19.42
2023-03-29T05:56:16.052Z,22.58
2023-03-29T05:57:18.267Z,20.98
2023-03-29T05:58:21.734Z,20.60
2023-03-29T05:59:24.424Z,22.23
2023-03-29T06:00:26.805Z,22.05
2023-03-29T06:01:30.931Z,27.70
2023-03-29T06:02:33.696Z,19.55
2023-03-29T06:03:36.957Z,17.52
2023-03-29T06:04:39.991Z,16.30
2023-03-29T06:05:50.149Z,16.37
2023-03-29T06:06:53.222Z,17.27
2023-03-29T06:07:56.741Z,16.15
2023-03-29T06:09:01.347Z,15.75
2023-03-29T06:10:09.642Z,16.67
2023-03-29T06:11:13.448Z,15.40
2023-03-29T06:12:21.856Z,15.65
2023-03-29T06:13:24.204Z,14.93
2023-03-29T06:14:27.239Z,19.77
2023-03-29T06:15:29.877Z,26.62
2023-03-29T06:16:32.618Z,21.20
2023-03-29T06:17:34.876Z,17.90
2023-03-29T06:18:40.329Z,15.15
2023-03-29T06:19:42.545Z,14.20
2023-03-29T06:20:49.316Z,13.90
2023-03-29T06:21:53.793Z,14.85
2023-03-29T06:22:58.422Z,15.73
2023-03-29T06:24:00.317Z,15.27
2023-03-29T06:25:02.627Z,15.30
2023-03-29T06:26:05.930Z,15.05
2023-03-29T06:27:08.141Z,13.85
2023-03-29T06:28:11.946Z,15.20
2023-03-29T06:29:14.827Z,14.32
2023-03-29T06:30:20.976Z,13.85
2023-03-29T06:31:23.281Z,13.95
2023-03-29T06:32:26.032Z,13.98
2023-03-29T06:33:30.642Z,13.82
2023-03-29T06:34:38.074Z,12.43
2023-03-29T06:35:44.301Z,11.63
2023-03-29T06:36:51.198Z,12.18
2023-03-29T06:37:56.019Z,12.00
2023-03-29T06:39:00.102Z,10.98
2023-03-29T06:40:07.260Z,11.32
2023-03-29T06:41:13.143Z,12.10
2023-03-29T06:42:21.044Z,11.23
2023-03-29T06:43:24.652Z,10.43
2023-03-29T06:44:28.423Z,10.68
2023-03-29T06:45:33.711Z,10.35
2023-03-29T06:46:37.524Z,11.12
2023-03-29T06:47:41.159Z,10.07
2023-03-29T06:48:43.178Z,9.40
2023-03-29T06:49:45.533Z,9.75
2023-03-29T06:50:49.650Z,9.98
2023-03-29T06:51:53.875Z,9.80
2023-03-29T06:52:56.664Z,9.70
2023-03-29T06:53:58.617Z,9.07
2023-03-29T06:55:01.905Z,9.48
2023-03-29T06:56:09.121Z,7.47
2023-03-29T06:57:13.325Z,9.10
2023-03-29T06:58:16.466Z,8.55
2023-03-29T06:59:18.859Z,8.13
2023-03-29T07:00:28.399Z,6.75
2023-03-29T07:01:34.647Z,7.00
2023-03-29T07:02:37.926Z,6.75
2023-03-29T07:03:46.762Z,7.32
2023-03-29T07:04:49.430Z,6.62
2023-03-29T07:05:53.030Z,6.00
2023-03-29T07:07:01.816Z,6.28
2023-03-29T07:08:07.314Z,6.37
2023-03-29T07:09:12.921Z,6.03
2023-03-29T07:10:16.591Z,6.05
2023-03-29T07:11:21.233Z,6.03
2023-03-29T07:12:23.701Z,5.80
2023-03-29T07:13:26.315Z,6.87
2023-03-29T07:14:31.518Z,6.22
2023-03-29T07:15:33.540Z,6.47
2023-03-29T07:16:37.669Z,6.68
2023-03-29T07:17:39.854Z,5.72
2023-03-29T07:18:43.883Z,5.70
2023-03-29T07:19:48.905Z,4.30
2023-03-29T07:20:52.208Z,4.25
2023-03-29T07:21:54.500Z,3.25
2023-03-29T07:22:57.388Z,3.42
2023-03-29T07:23:59.579Z,3.20
2023-03-29T07:25:01.511Z,3.03
2023-03-29T07:26:07.616Z,4.00
2023-03-29T07:27:09.903Z,3.60
2023-03-29T07:28:11.850Z,3.58
2023-03-29T07:29:14.191Z,3.50
2023-03-29T07:30:23.146Z,3.28
2023-03-29T07:31:25.637Z,3.65
2023-03-29T07:32:31.360Z,3.30
2023-03-29T07:33:35.228Z,3.25
2023-03-29T07:34:38.330Z,3.30
2023-03-29T07:35:43.455Z,3.25
2023-03-29T07:36:45.410Z,2.85
2023-03-29T07:37:47.925Z,2.83
2023-03-29T07:38:50.168Z,2.87
2023-03-29T07:39:53.473Z,3.10
2023-03-29T07:40:59.042Z,3.08
2023-03-29T07:42:02.437Z,3.03
2023-03-29T07:43:08.953Z,3.60
2023-03-29T07:44:11.425Z,3.97
2023-03-29T07:45:16.394Z,3.45
2023-03-29T07:46:20.338Z,3.03
2023-03-29T07:47:23.585Z,2.72
2023-03-29T07:48:25.876Z,3.12
2023-03-29T07:49:29.093Z,3.30
2023-03-29T07:50:32.612Z,3.28
2023-03-29T07:51:37.413Z,2.70
2023-03-29T07:52:40.845Z,3.25
2023-03-29T07:53:43.125Z,3.20
2023-03-29T07:54:46.398Z,2.83
2023-03-29T07:55:52.580Z,2.70
2023-03-29T07:56:58.863Z,2.95
2023-03-29T07:58:04.353Z,2.87
2023-03-29T07:59:08.380Z,3.97
2023-03-29T08:00:17.081Z,3.90
2023-03-29T08:01:21.756Z,3.70
2023-03-29T08:02:27.372Z,4.03
2023-03-29T08:03:30.863Z,2.90
2023-03-29T08:04:42.860Z,2.75
2023-03-29T08:05:47.733Z,2.53
2023-03-29T08:06:50.605Z,2.65
2023-03-29T08:07:52.768Z,2.70
2023-03-29T08:08:55.176Z,2.70
2023-03-29T08:09:57.417Z,2.67
2023-03-29T08:11:00.294Z,2.45
2023-03-29T08:12:02.933Z,2.42
2023-03-29T08:13:08.452Z,2.50
2023-03-29T08:14:11.466Z,3.25
2023-03-29T08:15:15.281Z,2.83
2023-03-29T08:16:18.234Z,2.25
2023-03-29T08:17:21.314Z,3.25
2023-03-29T08:18:23.471Z,2.12
2023-03-29T08:19:25.756Z,1.95
2023-03-29T08:20:28.100Z,2.22
2023-03-29T08:21:30.482Z,2.60
2023-03-29T08:22:34.422Z,2.45
2023-03-29T08:23:37.478Z,2.10
2023-03-29T08:24:39.690Z,2.15
2023-03-29T08:25:42.411Z,2.80
2023-03-29T08:26:44.593Z,2.37
2023-03-29T08:27:48.676Z,2.58
2023-03-29T08:28:53.035Z,2.20
2023-03-29T08:29:55.213Z,2.28
2023-03-29T08:30:57.271Z,2.30
2023-03-29T08:31:59.570Z,2.70
2023-03-29T08:33:02.235Z,2.30
2023-03-29T08:34:04.714Z,2.20
2023-03-29T08:35:09.657Z,2.12
2023-03-29T08:36:12.486Z,2.72
2023-03-29T08:37:14.984Z,2.35
2023-03-29T08:38:17.476Z,2.28
2023-03-29T08:39:19.825Z,1.70
2023-03-29T08:40:27.253Z,2.58
2023-03-29T08:41:49.499Z,2.10
2023-03-29T08:43:16.625Z,1.95
2023-03-29T08:44:26.619Z,1.70
2023-03-29T08:45:51.014Z,1.70
2023-03-29T08:47:37.814Z,2.80
2023-03-29T08:48:52.202Z,1.77
2023-03-29T08:49:57.435Z,2.33
2023-03-29T08:51:32.445Z,2.08
2023-03-29T08:52:41.411Z,1.95
2023-03-29T08:53:52.457Z,2.00
2023-03-29T08:54:57.339Z,1.92
2023-03-29T08:56:12.267Z,2.47
2023-03-29T08:57:28.210Z,1.98
2023-03-29T08:58:33.556Z,2.03
2023-03-29T08:59:35.920Z,1.90
2023-03-29T09:00:47.189Z,1.95
2023-03-29T09:01:53.185Z,1.98
2023-03-29T09:02:57.536Z,2.00
2023-03-29T09:04:11.740Z,1.52
2023-03-29T09:05:40.181Z,1.95
2023-03-29T09:06:43.425Z,2.10
2023-03-29T09:07:46.135Z,2.12
2023-03-29T09:08:51.013Z,2.00
2023-03-29T09:09:54.401Z,1.60
2023-03-29T09:11:18.436Z,1.80
2023-03-29T09:12:41.173Z,1.62
2023-03-29T09:14:47.998Z,1.73
2023-03-29T09:16:19.632Z,1.90
2023-03-29T09:17:24.406Z,1.60
2023-03-29T09:18:38.291Z,2.00
2023-03-29T09:19:53.071Z,1.80
2023-03-29T09:21:13.044Z,2.22
2023-03-29T09:22:23.331Z,1.60
2023-03-29T09:23:31.930Z,1.80
2023-03-29T09:25:11.076Z,2.28
2023-03-29T09:26:36.980Z,1.60
2023-03-29T09:27:42.306Z,1.65
2023-03-29T09:28:45.794Z,1.83
2023-03-29T09:30:04.733Z,1.90
2023-03-29T09:31:31.002Z,1.97
2023-03-29T09:33:06.574Z,1.83
2023-03-29T09:34:18.579Z,1.45
2023-03-29T09:35:47.827Z,1.65
2023-03-29T09:36:54.397Z,1.17
2023-03-29T09:37:57.119Z,1.73
2023-03-29T09:38:59.693Z,1.80
2023-03-29T09:40:11.099Z,1.50
2023-03-29T09:41:16.660Z,2.00
2023-03-29T09:42:20.345Z,2.10
2023-03-29T09:43:37.890Z,1.50
2023-03-29T09:44:52.693Z,3.90
2023-03-29T09:46:00.705Z,1.45
2023-03-29T09:47:19.854Z,1.60
2023-03-29T09:48:23.102Z,1.90
2023-03-29T09:49:31.372Z,1.87
2023-03-29T09:50:37.856Z,1.90
2023-03-29T09:51:42.647Z,1.45
2023-03-29T09:52:45.021Z,1.92
2023-03-29T09:53:47.369Z,1.70
2023-03-29T09:54:51.999Z,2.00
2023-03-29T09:55:58.411Z,1.90
2023-03-29T09:57:01.107Z,1.62
2023-03-29T09:58:19.712Z,1.40
2023-03-29T09:59:21.968Z,1.60
2023-03-29T10:00:24.767Z,1.60
2023-03-29T10:01:37.467Z,1.75
2023-03-29T10:02:41.026Z,1.80
2023-03-29T10:03:50.108Z,1.73
2023-03-29T10:05:04.060Z,2.03
2023-03-29T10:06:11.066Z,1.60
2023-03-29T10:07:20.572Z,1.75
2023-03-29T10:08:31.497Z,1.50
2023-03-29T10:09:35.062Z,1.70
2023-03-29T10:10:39.213Z,1.75
2023-03-29T10:11:41.615Z,1.40
2023-03-29T10:12:50.552Z,1.50
2023-03-29T10:13:57.527Z,1.80
2023-03-29T10:15:00.882Z,1.48
2023-03-29T10:16:03.976Z,2.15
2023-03-29T10:17:14.757Z,1.73
2023-03-29T10:18:17.043Z,2.03
2023-03-29T10:19:35.794Z,1.77
2023-03-29T10:20:40.655Z,1.70
2023-03-29T10:21:42.641Z,1.90
2023-03-29T10:22:57.244Z,1.65
2023-03-29T10:23:59.577Z,1.75
2023-03-29T10:25:02.135Z,1.67
2023-03-29T10:26:07.826Z,1.83
2023-03-29T10:27:11.809Z,1.60
2023-03-29T10:28:17.673Z,1.80
2023-03-29T10:29:20.195Z,1.62
2023-03-29T10:30:25.338Z,1.90
2023-03-29T10:31:33.064Z,1.87
2023-03-29T10:32:37.671Z,1.62
2023-03-29T10:33:39.709Z,1.92
2023-03-29T10:34:43.140Z,2.08
2023-03-29T10:35:47.216Z,1.85
2023-03-29T10:36:58.724Z,1.75
2023-03-29T10:38:05.324Z,1.98
2023-03-29T10:39:07.341Z,1.90
2023-03-29T10:40:43.381Z,1.98
2023-03-29T10:41:45.969Z,1.95
2023-03-29T10:42:50.257Z,2.12
2023-03-29T10:43:52.256Z,1.77
2023-03-29T10:44:58.801Z,1.98
2023-03-29T10:46:22.254Z,1.98
2023-03-29T10:47:24.663Z,1.95
2023-03-29T10:48:31.189Z,2.00
2023-03-29T10:49:41.115Z,2.90
2023-03-29T10:50:48.586Z,2.55
2023-03-29T10:51:52.550Z,2.20
2023-03-29T10:52:54.538Z,1.80
2023-03-29T10:53:59.122Z,2.05
2023-03-29T10:55:01.069Z,2.10
2023-03-29T10:56:11.959Z,2.30
2023-03-29T10:57:22.816Z,2.10
2023-03-29T10:58:47.804Z,2.67
2023-03-29T11:00:04.861Z,2.03
2023-03-29T11:01:17.508Z,2.12
2023-03-29T11:02:30.376Z,1.90
2023-03-29T11:04:07.973Z,2.35
2023-03-29T11:05:13.479Z,1.90
2023-03-29T11:06:29.787Z,2.03
2023-03-29T11:07:48.416Z,1.90
2023-03-29T11:09:05.274Z,2.15
2023-03-29T11:10:28.467Z,2.53
2023-03-29T11:11:44.112Z,2.12
2023-03-29T11:13:10.719Z,2.05
2023-03-29T11:14:41.388Z,2.10
2023-03-29T11:15:51.906Z,2.15
2023-03-29T11:17:02.579Z,2.15
2023-03-29T11:18:42.884Z,2.50
2023-03-29T11:19:56.630Z,2.42
2023-03-29T11:21:08.483Z,2.20
2023-03-29T11:22:50.364Z,2.08
2023-03-29T11:24:29.591Z,2.30
2023-03-29T11:25:45.745Z,1.77
2023-03-29T11:26:56.918Z,2.17
2023-03-29T11:28:01.655Z,1.98
2023-03-29T11:29:29.740Z,1.95
2023-03-29T11:30:48.280Z,2.15
2023-03-29T11:32:01.097Z,2.10
2023-03-29T11:33:03.035Z,2.40
2023-03-29T11:34:41.852Z,2.28
2023-03-29T11:35:43.704Z,2.50
2023-03-29T11:37:01.081Z,2.10
2023-03-29T11:38:16.116Z,2.47
2023-03-29T11:39:49.331Z,1.90
2023-03-29T11:41:09.581Z,2.42
2023-03-29T11:42:18.300Z,2.05
2023-03-29T11:43:31.194Z,2.00
2023-03-29T11:44:36.017Z,2.45
2023-03-29T11:45:51.367Z,2.42
2023-03-29T11:47:10.929Z,2.30
2023-03-29T11:48:31.261Z,2.22
2023-03-29T11:49:43.078Z,1.80
2023-03-29T11:50:54.688Z,1.90
2023-03-29T11:52:08.020Z,2.03
2023-03-29T11:53:18.018Z,2.30
2023-03-29T11:54:29.983Z,2.50
2023-03-29T11:55:36.631Z,2.30
2023-03-29T11:56:46.792Z,2.22
2023-03-29T11:57:54.064Z,2.40
2023-03-29T11:59:05.303Z,2.65
2023-03-29T12:00:14.638Z,2.70
2023-03-29T12:01:26.214Z,2.20
2023-03-29T12:02:50.764Z,2.10
2023-03-29T12:04:02.541Z,2.35
2023-03-29T12:05:20.537Z,2.30
2023-03-29T12:06:48.786Z,2.50
2023-03-29T12:08:06.303Z,2.33
2023-03-29T12:09:22.844Z,2.40
2023-03-29T12:10:33.965Z,2.53
2023-03-29T12:11:48.021Z,2.50
2023-03-29T12:12:59.665Z,2.53
2023-03-29T12:14:09.227Z,2.42
2023-03-29T12:15:20.334Z,2.42
2023-03-29T12:16:46.831Z,2.25
2023-03-29T12:17:59.400Z,2.72
2023-03-29T12:19:18.832Z,2.70
2023-03-29T12:20:28.367Z,2.55
2023-03-29T12:21:33.858Z,2.72
2023-03-29T12:22:37.802Z,2.50
2023-03-29T12:23:43.775Z,2.97
2023-03-29T12:24:51.446Z,2.53
2023-03-29T12:26:17.160Z,2.42
2023-03-29T12:27:44.920Z,2.50
2023-03-29T12:29:08.370Z,2.53
2023-03-29T12:30:24.206Z,3.40
2023-03-29T12:31:43.736Z,2.70
2023-03-29T12:32:54.033Z,3.08
2023-03-29T12:34:06.742Z,3.10
2023-03-29T12:35:40.487Z,2.78
2023-03-29T12:37:24.644Z,2.80
2023-03-29T12:38:31.261Z,2.80
2023-03-29T12:39:37.868Z,2.60
2023-03-29T12:41:04.084Z,2.50
2023-03-29T12:42:14.451Z,2.92
2023-03-29T12:43:24.192Z,2.70
2023-03-29T12:44:27.277Z,2.80
2023-03-29T12:45:48.164Z,2.53
2023-03-29T12:47:00.354Z,2.35
2023-03-29T12:48:02.993Z,2.00
2023-03-29T12:49:14.467Z,2.22
2023-03-29T12:50:32.716Z,2.47
2023-03-29T12:51:37.043Z,2.45
2023-03-29T12:52:42.924Z,2.47
2023-03-29T12:53:51.253Z,2.12
2023-03-29T12:54:58.532Z,2.87
2023-03-29T12:56:03.715Z,2.33
2023-03-29T12:57:45.025Z,2.28
2023-03-29T12:59:05.643Z,2.33
2023-03-29T13:00:31.509Z,2.62
2023-03-29T13:01:36.932Z,2.47
2023-03-29T13:02:39.703Z,2.20
2023-03-29T13:03:52.120Z,2.20
2023-03-29T13:04:54.036Z,2.50
2023-03-29T13:06:05.554Z,1.85
2023-03-29T13:07:27.992Z,2.00
2023-03-29T13:08:33.176Z,2.00
2023-03-29T13:09:46.969Z,1.92
2023-03-29T13:10:56.455Z,2.30
2023-03-29T13:12:06.753Z,2.03
2023-03-29T13:13:16.966Z,2.33
2023-03-29T13:14:21.762Z,2.00
2023-03-29T13:15:26.964Z,2.03
2023-03-29T13:16:34.910Z,2.45
2023-03-29T13:17:56.702Z,2.03
2023-03-29T13:19:07.736Z,1.98
2023-03-29T13:20:18.855Z,2.05
2023-03-29T13:21:42.778Z,2.10
2023-03-29T13:22:59.562Z,2.50
2023-03-29T13:24:36.576Z,2.30
2023-03-29T13:26:00.306Z,1.92
2023-03-29T13:27:21.642Z,2.10
2023-03-29T13:29:01.136Z,2.35
2023-03-29T13:30:09.342Z,2.28
2023-03-29T13:31:11.520Z,2.60
2023-03-29T13:32:37.815Z,2.22
2023-03-29T13:33:53.803Z,2.42
2023-03-29T13:35:30.029Z,2.25
2023-03-29T13:36:51.151Z,2.08
2023-03-29T13:38:03.661Z,2.30
2023-03-29T13:39:21.570Z,2.65
2023-03-29T13:40:42.952Z,2.30
2023-03-29T13:41:54.241Z,2.62
2023-03-29T13:43:08.303Z,2.62
2023-03-29T13:44:44.322Z,2.70
2023-03-29T13:46:11.810Z,2.50
2023-03-29T13:47:16.452Z,2.22
2023-03-29T13:48:27.300Z,2.17
2023-03-29T13:49:33.380Z,2.00
2023-03-29T13:50:51.683Z,1.90
2023-03-29T13:51:53.547Z,2.25
2023-03-29T13:53:10.119Z,1.90
2023-03-29T13:54:30.869Z,2.50
2023-03-29T13:55:47.435Z,2.67
2023-03-29T13:56:58.978Z,2.37
2023-03-29T13:58:09.809Z,2.20
2023-03-29T13:59:30.179Z,2.42
2023-03-29T14:00:42.021Z,2.40
2023-03-29T14:01:53.490Z,2.30
2023-03-29T14:03:04.296Z,2.83
2023-03-29T14:04:10.479Z,2.60
2023-03-29T14:05:16.930Z,2.62
2023-03-29T14:06:33.579Z,2.70
2023-03-29T14:07:39.211Z,2.78
2023-03-29T14:08:43.396Z,2.97
2023-03-29T14:09:49.740Z,2.72
2023-03-29T14:10:53.522Z,2.70
2023-03-29T14:11:56.545Z,2.33
2023-03-29T14:13:04.603Z,2.87
2023-03-29T14:14:08.337Z,2.60
2023-03-29T14:15:21.466Z,2.95
2023-03-29T14:16:27.937Z,3.00
2023-03-29T14:17:30.996Z,2.78
2023-03-29T14:18:36.897Z,2.92
2023-03-29T14:19:38.832Z,3.20
2023-03-29T14:20:46.045Z,3.30
2023-03-29T14:21:51.274Z,3.28
2023-03-29T14:22:53.513Z,2.75
2023-03-29T14:24:01.759Z,3.25
2023-03-29T14:25:13.458Z,3.05
2023-03-29T14:26:18.969Z,3.33
2023-03-29T14:27:22.272Z,2.90
2023-03-29T14:28:27.991Z,3.25
2023-03-29T14:29:32.170Z,3.05
2023-03-29T14:30:34.160Z,3.00
2023-03-29T14:31:39.656Z,3.70
2023-03-29T14:32:41.586Z,3.25
2023-03-29T14:33:43.536Z,3.00
2023-03-29T14:34:50.194Z,3.33
2023-03-29T14:35:52.403Z,3.40
2023-03-29T14:36:54.549Z,3.55
2023-03-29T14:37:56.661Z,3.10
2023-03-29T14:39:02.971Z,3.08
2023-03-29T14:40:12.057Z,3.42
2023-03-29T14:41:14.118Z,3.05
2023-03-29T14:42:20.942Z,3.00
2023-03-29T14:43:24.026Z,3.10
2023-03-29T14:44:33.229Z,2.90
2023-03-29T14:45:36.379Z,2.70
2023-03-29T14:46:38.883Z,2.90
2023-03-29T14:47:42.432Z,2.87
2023-03-29T14:48:44.676Z,3.20
2023-03-29T14:49:46.980Z,3.05
2023-03-29T14:50:50.543Z,3.33
2023-03-29T14:51:54.830Z,3.10
2023-03-29T14:52:58.721Z,3.20
2023-03-29T14:54:03.270Z,3.20
2023-03-29T14:55:06.094Z,3.20
2023-03-29T14:56:13.411Z,3.17
2023-03-29T14:57:18.522Z,3.08